Aviation Digital Data Service (ADDS)

Output produced by METARs form (1249 UTC 26 March 2019)
found at http://www.aviationweather.gov/metar/data/
 
METAR text: DFOO 261200Z 22011KT 180V260 9999 FEW020 35/21 Q1012
Conditions at: DFOO (BOBO-DIOULASSO , BF) observed 1200 UTC 26 March 2019
Temperature: 35.0°C (95°F)
Dewpoint: 21.0°C (70°F) [RH = 44%]
Pressure (altimeter): 29.88 inches Hg (1012.0 mb)
Winds: from the SW (220 degrees) at 13 MPH (11 knots; 5.7 m/s)
Visibility: 6 or more miles (10+ km)
Ceiling: at least 12,000 feet AGL
Clouds: few clouds at 2000 feet AGL
Weather: no significant weather observed at this time

METAR text: DFOO 261100Z 21010KT 180V250 CAVOK 33/21 Q1013
Conditions at: DFOO (BOBO-DIOULASSO , BF) observed 1100 UTC 26 March 2019
Temperature: 33.0°C (91°F)
Dewpoint: 21.0°C (70°F) [RH = 49%]
Pressure (altimeter): 29.91 inches Hg (1013.0 mb)
Winds: from the SSW (210 degrees) at 12 MPH (10 knots; 5.1 m/s)
Visibility: 6 or more miles (10+ km)
Ceiling: ceiling and visibility are OK
Clouds: unknown
Weather: no significant weather observed at this time

METAR text: DFOO 261000Z 20011KT CAVOK 32/22 Q1013
Conditions at: DFOO (BOBO-DIOULASSO , BF) observed 1000 UTC 26 March 2019
Temperature: 32.0°C (90°F)
Dewpoint: 22.0°C (72°F) [RH = 56%]
Pressure (altimeter): 29.91 inches Hg (1013.0 mb)
Winds: from the SSW (200 degrees) at 13 MPH (11 knots; 5.7 m/s)
Visibility: 6 or more miles (10+ km)
Ceiling: ceiling and visibility are OK
Clouds: unknown
Weather: no significant weather observed at this time

METAR text: DFOO 260900Z 21011KT 180V240 CAVOK 30/21 Q1013
Conditions at: DFOO (BOBO-DIOULASSO , BF) observed 0900 UTC 26 March 2019
Temperature: 30.0°C (86°F)
Dewpoint: 21.0°C (70°F) [RH = 59%]
Pressure (altimeter): 29.91 inches Hg (1013.0 mb)
Winds: from the SSW (210 degrees) at 13 MPH (11 knots; 5.7 m/s)
Visibility: 6 or more miles (10+ km)
Ceiling: ceiling and visibility are OK
Clouds: unknown
Weather: no significant weather observed at this time

METAR text: DFOO 260800Z 21010KT CAVOK 28/21 Q1012
Conditions at: DFOO (BOBO-DIOULASSO , BF) observed 0800 UTC 26 March 2019
Temperature: 28.0°C (82°F)
Dewpoint: 21.0°C (70°F) [RH = 66%]
Pressure (altimeter): 29.88 inches Hg (1012.0 mb)
Winds: from the SSW (210 degrees) at 12 MPH (10 knots; 5.1 m/s)
Visibility: 6 or more miles (10+ km)
Ceiling: ceiling and visibility are OK
Clouds: unknown
Weather: no significant weather observed at this time

METAR text: DFOO 260700Z 22008KT 190V260 CAVOK 27/21 Q1012
Conditions at: DFOO (BOBO-DIOULASSO , BF) observed 0700 UTC 26 March 2019
Temperature: 27.0°C (81°F)
Dewpoint: 21.0°C (70°F) [RH = 70%]
Pressure (altimeter): 29.88 inches Hg (1012.0 mb)
Winds: from the SW (220 degrees) at 9 MPH (8 knots; 4.1 m/s)
Visibility: 6 or more miles (10+ km)
Ceiling: ceiling and visibility are OK
Clouds: unknown
Weather: no significant weather observed at this time

METAR text: DFOO 260600Z 18008KT CAVOK 28/21 Q1011
Conditions at: DFOO (BOBO-DIOULASSO , BF) observed 0600 UTC 26 March 2019
Temperature: 28.0°C (82°F)
Dewpoint: 21.0°C (70°F) [RH = 66%]
Pressure (altimeter): 29.85 inches Hg (1011.0 mb)
Winds: from the S (180 degrees) at 9 MPH (8 knots; 4.1 m/s)
Visibility: 6 or more miles (10+ km)
Ceiling: ceiling and visibility are OK
Clouds: unknown
Weather: no significant weather observed at this time

METAR text: DFOO 260500Z 18008KT CAVOK 28/21 Q1010
Conditions at: DFOO (BOBO-DIOULASSO , BF) observed 0500 UTC 26 March 2019
Temperature: 28.0°C (82°F)
Dewpoint: 21.0°C (70°F) [RH = 66%]
Pressure (altimeter): 29.82 inches Hg (1010.0 mb)
Winds: from the S (180 degrees) at 9 MPH (8 knots; 4.1 m/s)
Visibility: 6 or more miles (10+ km)
Ceiling: ceiling and visibility are OK
Clouds: unknown
Weather: no significant weather observed at this time

METAR text: DFOO 260400Z 18008KT CAVOK 28/21 Q1010
Conditions at: DFOO (BOBO-DIOULASSO , BF) observed 0400 UTC 26 March 2019
Temperature: 28.0°C (82°F)
Dewpoint: 21.0°C (70°F) [RH = 66%]
Pressure (altimeter): 29.82 inches Hg (1010.0 mb)
Winds: from the S (180 degrees) at 9 MPH (8 knots; 4.1 m/s)
Visibility: 6 or more miles (10+ km)
Ceiling: ceiling and visibility are OK
Clouds: unknown
Weather: no significant weather observed at this time

METAR text: DFOO 260300Z 18010KT CAVOK 29/21 Q1010
Conditions at: DFOO (BOBO-DIOULASSO , BF) observed 0300 UTC 26 March 2019
Temperature: 29.0°C (84°F)
Dewpoint: 21.0°C (70°F) [RH = 62%]
Pressure (altimeter): 29.82 inches Hg (1010.0 mb)
Winds: from the S (180 degrees) at 12 MPH (10 knots; 5.1 m/s)
Visibility: 6 or more miles (10+ km)
Ceiling: ceiling and visibility are OK
Clouds: unknown
Weather: no significant weather observed at this time

METAR text: DFOO 260200Z 18008KT CAVOK 30/17 Q1010
Conditions at: DFOO (BOBO-DIOULASSO , BF) observed 0200 UTC 26 March 2019
Temperature: 30.0°C (86°F)
Dewpoint: 17.0°C (63°F) [RH = 46%]
Pressure (altimeter): 29.82 inches Hg (1010.0 mb)
Winds: from the S (180 degrees) at 9 MPH (8 knots; 4.1 m/s)
Visibility: 6 or more miles (10+ km)
Ceiling: ceiling and visibility are OK
Clouds: unknown
Weather: no significant weather observed at this time

METAR text: DFOO 260100Z 18008KT CAVOK 31/17 Q1011
Conditions at: DFOO (BOBO-DIOULASSO , BF) observed 0100 UTC 26 March 2019
Temperature: 31.0°C (88°F)
Dewpoint: 17.0°C (63°F) [RH = 43%]
Pressure (altimeter): 29.85 inches Hg (1011.0 mb)
Winds: from the S (180 degrees) at 9 MPH (8 knots; 4.1 m/s)
Visibility: 6 or more miles (10+ km)
Ceiling: ceiling and visibility are OK
Clouds: unknown
Weather: no significant weather observed at this time

METAR text: DFOO 260000Z 18008KT CAVOK 31/17 Q1011
Conditions at: DFOO (BOBO-DIOULASSO , BF) observed 0000 UTC 26 March 2019
Temperature: 31.0°C (88°F)
Dewpoint: 17.0°C (63°F) [RH = 43%]
Pressure (altimeter): 29.85 inches Hg (1011.0 mb)
Winds: from the S (180 degrees) at 9 MPH (8 knots; 4.1 m/s)
Visibility: 6 or more miles (10+ km)
Ceiling: ceiling and visibility are OK
Clouds: unknown
Weather: no significant weather observed at this time

METAR text: DFOO 252300Z 18004KT CAVOK 32/16 Q1011
Conditions at: DFOO (BOBO-DIOULASSO , BF) observed 2300 UTC 25 March 2019
Temperature: 32.0°C (90°F)
Dewpoint: 16.0°C (61°F) [RH = 38%]
Pressure (altimeter): 29.85 inches Hg (1011.0 mb)
Winds: from the S (180 degrees) at 5 MPH (4 knots; 2.1 m/s)
Visibility: 6 or more miles (10+ km)
Ceiling: ceiling and visibility are OK
Clouds: unknown
Weather: no significant weather observed at this time

METAR text: DFOO 252200Z 18006KT CAVOK 33/16 Q1011
Conditions at: DFOO (BOBO-DIOULASSO , BF) observed 2200 UTC 25 March 2019
Temperature: 33.0°C (91°F)
Dewpoint: 16.0°C (61°F) [RH = 36%]
Pressure (altimeter): 29.85 inches Hg (1011.0 mb)
Winds: from the S (180 degrees) at 7 MPH (6 knots; 3.1 m/s)
Visibility: 6 or more miles (10+ km)
Ceiling: ceiling and visibility are OK
Clouds: unknown
Weather: no significant weather observed at this time

METAR text: DFOO 252100Z 16006KT CAVOK 33/16 Q1011
Conditions at: DFOO (BOBO-DIOULASSO , BF) observed 2100 UTC 25 March 2019
Temperature: 33.0°C (91°F)
Dewpoint: 16.0°C (61°F) [RH = 36%]
Pressure (altimeter): 29.85 inches Hg (1011.0 mb)
Winds: from the SSE (160 degrees) at 7 MPH (6 knots; 3.1 m/s)
Visibility: 6 or more miles (10+ km)
Ceiling: ceiling and visibility are OK
Clouds: unknown
Weather: no significant weather observed at this time

METAR text: DFOO 252000Z 17004KT CAVOK 35/14 Q1010
Conditions at: DFOO (BOBO-DIOULASSO , BF) observed 2000 UTC 25 March 2019
Temperature: 35.0°C (95°F)
Dewpoint: 14.0°C (57°F) [RH = 28%]
Pressure (altimeter): 29.82 inches Hg (1010.0 mb)
Winds: from the S (170 degrees) at 5 MPH (4 knots; 2.1 m/s)
Visibility: 6 or more miles (10+ km)
Ceiling: ceiling and visibility are OK
Clouds: unknown
Weather: no significant weather observed at this time

METAR text: DFOO 251900Z 16003KT CAVOK 36/15 Q1009
Conditions at: DFOO (BOBO-DIOULASSO , BF) observed 1900 UTC 25 March 2019
Temperature: 36.0°C (97°F)
Dewpoint: 15.0°C (59°F) [RH = 29%]
Pressure (altimeter): 29.79 inches Hg (1009.0 mb)
Winds: from the SSE (160 degrees) at 3 MPH (3 knots; 1.5 m/s)
Visibility: 6 or more miles (10+ km)
Ceiling: ceiling and visibility are OK
Clouds: unknown
Weather: no significant weather observed at this time

METAR text: DFOO 251800Z 17005KT CAVOK 37/13 Q1008
Conditions at: DFOO (BOBO-DIOULASSO , BF) observed 1800 UTC 25 March 2019
Temperature: 37.0°C (99°F)
Dewpoint: 13.0°C (55°F) [RH = 24%]
Pressure (altimeter): 29.76 inches Hg (1008.0 mb)
Winds: from the S (170 degrees) at 6 MPH (5 knots; 2.6 m/s)
Visibility: 6 or more miles (10+ km)
Ceiling: ceiling and visibility are OK
Clouds: unknown
Weather: no significant weather observed at this time

METAR text: DFOO 251700Z 17005KT 130V200 CAVOK 38/10 Q1008
Conditions at: DFOO (BOBO-DIOULASSO , BF) observed 1700 UTC 25 March 2019
Temperature: 38.0°C (100°F)
Dewpoint: 10.0°C (50°F) [RH = 19%]
Pressure (altimeter): 29.76 inches Hg (1008.0 mb)
Winds: from the S (170 degrees) at 6 MPH (5 knots; 2.6 m/s)
Visibility: 6 or more miles (10+ km)
Ceiling: ceiling and visibility are OK
Clouds: unknown
Weather: no significant weather observed at this time

METAR text: DFOO 251600Z 21006KT 180V240 CAVOK 39/10 Q1008
Conditions at: DFOO (BOBO-DIOULASSO , BF) observed 1600 UTC 25 March 2019
Temperature: 39.0°C (102°F)
Dewpoint: 10.0°C (50°F) [RH = 18%]
Pressure (altimeter): 29.76 inches Hg (1008.0 mb)
Winds: from the SSW (210 degrees) at 7 MPH (6 knots; 3.1 m/s)
Visibility: 6 or more miles (10+ km)
Ceiling: ceiling and visibility are OK
Clouds: unknown
Weather: no significant weather observed at this time

METAR text: DFOO 251500Z 22007KT 160V290 CAVOK 39/11 Q1008
Conditions at: DFOO (BOBO-DIOULASSO , BF) observed 1500 UTC 25 March 2019
Temperature: 39.0°C (102°F)
Dewpoint: 11.0°C (52°F) [RH = 19%]
Pressure (altimeter): 29.76 inches Hg (1008.0 mb)
Winds: from the SW (220 degrees) at 8 MPH (7 knots; 3.6 m/s)
Visibility: 6 or more miles (10+ km)
Ceiling: ceiling and visibility are OK
Clouds: unknown
Weather: no significant weather observed at this time

METAR text: DFOO 251400Z 20008KT 090V250 CAVOK 38/11 Q1009
Conditions at: DFOO (BOBO-DIOULASSO , BF) observed 1400 UTC 25 March 2019
Temperature: 38.0°C (100°F)
Dewpoint: 11.0°C (52°F) [RH = 20%]
Pressure (altimeter): 29.79 inches Hg (1009.0 mb)
Winds: from the SSW (200 degrees) at 9 MPH (8 knots; 4.1 m/s)
Visibility: 6 or more miles (10+ km)
Ceiling: ceiling and visibility are OK
Clouds: unknown
Weather: no significant weather observed at this time

METAR text: DFOO 251300Z 23009KT 180V280 CAVOK 37/15 Q1010
Conditions at: DFOO (BOBO-DIOULASSO , BF) observed 1300 UTC 25 March 2019
Temperature: 37.0°C (99°F)
Dewpoint: 15.0°C (59°F) [RH = 27%]
Pressure (altimeter): 29.82 inches Hg (1010.0 mb)
Winds: from the SW (230 degrees) at 10 MPH (9 knots; 4.6 m/s)
Visibility: 6 or more miles (10+ km)
Ceiling: ceiling and visibility are OK
Clouds: unknown
Weather: no significant weather observed at this time

METAR text: DFOO 251200Z 22008KT 160V280 CAVOK 36/16 Q1011
Conditions at: DFOO (BOBO-DIOULASSO , BF) observed 1200 UTC 25 March 2019
Temperature: 36.0°C (97°F)
Dewpoint: 16.0°C (61°F) [RH = 31%]
Pressure (altimeter): 29.85 inches Hg (1011.0 mb)
Winds: from the SW (220 degrees) at 9 MPH (8 knots; 4.1 m/s)
Visibility: 6 or more miles (10+ km)
Ceiling: ceiling and visibility are OK
Clouds: unknown
Weather: no significant weather observed at this time

METAR text: DFOO 251100Z 23012KT 200V260 CAVOK 34/19 Q1012
Conditions at: DFOO (BOBO-DIOULASSO , BF) observed 1100 UTC 25 March 2019
Temperature: 34.0°C (93°F)
Dewpoint: 19.0°C (66°F) [RH = 41%]
Pressure (altimeter): 29.88 inches Hg (1012.0 mb)
Winds: from the SW (230 degrees) at 14 MPH (12 knots; 6.2 m/s)
Visibility: 6 or more miles (10+ km)
Ceiling: ceiling and visibility are OK
Clouds: unknown
Weather: no significant weather observed at this time

METAR text: DFOO 251000Z 22015KT CAVOK 32/20 Q1013
Conditions at: DFOO (BOBO-DIOULASSO , BF) observed 1000 UTC 25 March 2019
Temperature: 32.0°C (90°F)
Dewpoint: 20.0°C (68°F) [RH = 49%]
Pressure (altimeter): 29.91 inches Hg (1013.0 mb)
Winds: from the SW (220 degrees) at 17 MPH (15 knots; 7.7 m/s)
Visibility: 6 or more miles (10+ km)
Ceiling: ceiling and visibility are OK
Clouds: unknown
Weather: no significant weather observed at this time

METAR text: DFOO 250900Z 21014KT 180V240 CAVOK 30/21 Q1013
Conditions at: DFOO (BOBO-DIOULASSO , BF) observed 0900 UTC 25 March 2019
Temperature: 30.0°C (86°F)
Dewpoint: 21.0°C (70°F) [RH = 59%]
Pressure (altimeter): 29.91 inches Hg (1013.0 mb)
Winds: from the SSW (210 degrees) at 16 MPH (14 knots; 7.2 m/s)
Visibility: 6 or more miles (10+ km)
Ceiling: ceiling and visibility are OK
Clouds: unknown
Weather: no significant weather observed at this time

METAR text: DFOO 250800Z 20011KT CAVOK 28/19 Q1013
Conditions at: DFOO (BOBO-DIOULASSO , BF) observed 0800 UTC 25 March 2019
Temperature: 28.0°C (82°F)
Dewpoint: 19.0°C (66°F) [RH = 58%]
Pressure (altimeter): 29.91 inches Hg (1013.0 mb)
Winds: from the SSW (200 degrees) at 13 MPH (11 knots; 5.7 m/s)
Visibility: 6 or more miles (10+ km)
Ceiling: ceiling and visibility are OK
Clouds: unknown
Weather: no significant weather observed at this time

METAR text: DFOO 250700Z 21008KT CAVOK 27/16 Q1012
Conditions at: DFOO (BOBO-DIOULASSO , BF) observed 0700 UTC 25 March 2019
Temperature: 27.0°C (81°F)
Dewpoint: 16.0°C (61°F) [RH = 51%]
Pressure (altimeter): 29.88 inches Hg (1012.0 mb)
Winds: from the SSW (210 degrees) at 9 MPH (8 knots; 4.1 m/s)
Visibility: 6 or more miles (10+ km)
Ceiling: ceiling and visibility are OK
Clouds: unknown
Weather: no significant weather observed at this time

METAR text: DFOO 250600Z 22006KT CAVOK 27/13 Q1011
Conditions at: DFOO (BOBO-DIOULASSO , BF) observed 0600 UTC 25 March 2019
Temperature: 27.0°C (81°F)
Dewpoint: 13.0°C (55°F) [RH = 42%]
Pressure (altimeter): 29.85 inches Hg (1011.0 mb)
Winds: from the SW (220 degrees) at 7 MPH (6 knots; 3.1 m/s)
Visibility: 6 or more miles (10+ km)
Ceiling: ceiling and visibility are OK
Clouds: unknown
Weather: no significant weather observed at this time

METAR text: DFOO 250500Z 18003KT CAVOK 27/09 Q1011
Conditions at: DFOO (BOBO-DIOULASSO , BF) observed 0500 UTC 25 March 2019
Temperature: 27.0°C (81°F)
Dewpoint: 9.0°C (48°F) [RH = 32%]
Pressure (altimeter): 29.85 inches Hg (1011.0 mb)
Winds: from the S (180 degrees) at 3 MPH (3 knots; 1.5 m/s)
Visibility: 6 or more miles (10+ km)
Ceiling: ceiling and visibility are OK
Clouds: unknown
Weather: no significant weather observed at this time

METAR text: DFOO 250300Z 00000KT CAVOK 27/04 Q1010
Conditions at: DFOO (BOBO-DIOULASSO , BF) observed 0300 UTC 25 March 2019
Temperature: 27.0°C (81°F)
Dewpoint: 4.0°C (39°F) [RH = 23%]
Pressure (altimeter): 29.82 inches Hg (1010.0 mb)
Winds: calm
Visibility: 6 or more miles (10+ km)
Ceiling: ceiling and visibility are OK
Clouds: unknown
Weather: no significant weather observed at this time

METAR text: DFOO 250200Z 00000KT CAVOK 27/06 Q1010
Conditions at: DFOO (BOBO-DIOULASSO , BF) observed 0200 UTC 25 March 2019
Temperature: 27.0°C (81°F)
Dewpoint: 6.0°C (43°F) [RH = 26%]
Pressure (altimeter): 29.82 inches Hg (1010.0 mb)
Winds: calm
Visibility: 6 or more miles (10+ km)
Ceiling: ceiling and visibility are OK
Clouds: unknown
Weather: no significant weather observed at this time

METAR text: DFOO 250100Z 00000KT CAVOK 29/06 Q1011
Conditions at: DFOO (BOBO-DIOULASSO , BF) observed 0100 UTC 25 March 2019
Temperature: 29.0°C (84°F)
Dewpoint: 6.0°C (43°F) [RH = 23%]
Pressure (altimeter): 29.85 inches Hg (1011.0 mb)
Winds: calm
Visibility: 6 or more miles (10+ km)
Ceiling: ceiling and visibility are OK
Clouds: unknown
Weather: no significant weather observed at this time

Forecast for: AMD
Text: TAF AMD DFOO 261230Z 2613/2712 20010KT 9999 FEW020
Forecast period: 1300 UTC 26 March 2019 to 1200 UTC 27 March 2019
Forecast type: FROM: standard forecast or significant change
Winds: from the SSW (200 degrees) at 12 MPH (10 knots; 5.1 m/s)
Visibility: 6 or more miles 10+ km)
Ceiling: at least 12,000 feet AGL
Clouds: few clouds at 2000 feet AGL
Weather: no significant weather forecast for this period
Text: TEMPO 2614/2622 4000 TSRA SCT023 FEW040CB
Forecast period: 1400 to 2200 UTC 26 March 2019
Forecast type: TEMPORARY: The following changes expected for less than half the time period
Visibility: 2.49 miles (4.01 km)
Ceiling: at least 12,000 feet AGL
Clouds: scattered clouds at 2300 feet AGL
few clouds at 4000 feet AGL
Weather: TSRA  (rain associated with thunderstorm(s))